createdAt,value
2019-03-19T00:01:58.420Z,22.42
2019-03-19T00:07:01.985Z,22.14
2019-03-19T00:12:05.530Z,22.42
2019-03-19T00:17:09.075Z,22.12
2019-03-19T00:22:12.664Z,22.08
2019-03-19T00:27:16.194Z,22.09
2019-03-19T00:32:19.732Z,22.00
2019-03-19T00:37:23.298Z,21.64
2019-03-19T00:42:26.859Z,20.46
2019-03-19T00:47:30.375Z,19.92
2019-03-19T00:52:33.942Z,19.73
2019-03-19T00:57:37.508Z,19.55
2019-03-19T01:02:41.037Z,19.43
2019-03-19T01:07:44.569Z,19.22
2019-03-19T01:12:48.117Z,19.16
2019-03-19T01:17:51.683Z,19.09
2019-03-19T01:22:55.243Z,18.97
2019-03-19T01:27:58.770Z,18.72
2019-03-19T01:33:02.327Z,18.57
2019-03-19T01:38:05.864Z,18.60
2019-03-19T01:43:09.399Z,18.96
2019-03-19T01:48:12.964Z,20.51
2019-03-19T01:53:16.516Z,21.48
2019-03-19T01:58:20.107Z,22.10
2019-03-19T02:03:23.655Z,22.41
2019-03-19T02:08:27.193Z,22.26
2019-03-19T02:13:30.793Z,22.08
2019-03-19T02:18:34.312Z,22.01
2019-03-19T02:23:37.852Z,21.98
2019-03-19T02:28:41.420Z,22.04
2019-03-19T02:33:44.953Z,21.86
2019-03-19T02:38:49.025Z,21.42
2019-03-19T02:43:52.555Z,20.67
2019-03-19T02:48:56.101Z,20.08
2019-03-19T02:54:00.072Z,19.42
2019-03-19T02:59:03.626Z,19.10
2019-03-19T03:04:07.192Z,18.90
2019-03-19T03:09:10.762Z,18.66
2019-03-19T03:14:14.360Z,18.61
2019-03-19T03:19:17.878Z,18.68
2019-03-19T03:24:21.556Z,18.37
2019-03-19T03:29:25.107Z,18.21
2019-03-19T03:34:28.670Z,18.24
2019-03-19T03:39:32.207Z,18.54
2019-03-19T03:44:35.767Z,19.86
2019-03-19T03:49:39.330Z,20.89
2019-03-19T03:54:42.885Z,21.73
2019-03-19T03:59:46.432Z,22.11
2019-03-19T04:04:49.975Z,22.61
2019-03-19T04:09:53.583Z,23.21
2019-03-19T04:14:57.113Z,23.72
2019-03-19T04:20:00.742Z,23.98
2019-03-19T04:25:04.905Z,24.13
2019-03-19T04:30:13.512Z,24.59
2019-03-19T04:35:17.071Z,24.58
2019-03-19T04:40:20.603Z,25.11
2019-03-19T04:45:24.193Z,24.96
2019-03-19T04:50:27.707Z,25.26
2019-03-19T04:55:31.280Z,25.41
2019-03-19T05:00:34.841Z,25.47
2019-03-19T05:05:38.422Z,25.62
2019-03-19T05:10:41.944Z,25.37
2019-03-19T05:15:45.613Z,25.51
2019-03-19T05:20:49.171Z,25.70
2019-03-19T05:25:52.729Z,25.64
2019-03-19T05:30:56.266Z,25.65
2019-03-19T05:35:59.842Z,26.04
2019-03-19T05:41:03.385Z,25.85
2019-03-19T05:46:06.973Z,25.83
2019-03-19T05:51:10.536Z,26.13
2019-03-19T05:56:14.347Z,25.93
2019-03-19T06:01:17.871Z,25.36
2019-03-19T06:06:21.541Z,25.13
2019-03-19T06:11:25.088Z,24.12
2019-03-19T06:16:28.644Z,23.63
2019-03-19T06:21:32.230Z,23.67
2019-03-19T06:26:35.753Z,23.10
2019-03-19T06:31:39.359Z,23.34
2019-03-19T06:36:42.897Z,23.49
2019-03-19T06:41:46.433Z,23.78
2019-03-19T06:46:50.096Z,23.91
2019-03-19T06:51:53.618Z,23.92
2019-03-19T06:56:57.195Z,23.95
2019-03-19T07:02:00.761Z,23.90
2019-03-19T07:07:05.228Z,22.44
2019-03-19T07:12:08.755Z,22.31
2019-03-19T07:17:12.304Z,22.84
2019-03-19T07:22:15.851Z,22.42
2019-03-19T07:27:19.421Z,22.61
2019-03-19T07:32:22.968Z,22.62
2019-03-19T07:37:26.563Z,22.28
2019-03-19T07:42:30.090Z,22.17
2019-03-19T07:50:47.201Z,22.18
2019-03-19T07:55:52.479Z,22.21
2019-03-19T08:00:56.051Z,22.10
2019-03-19T08:05:59.775Z,22.18
2019-03-19T08:11:03.327Z,22.20
2019-03-19T08:16:06.866Z,21.92
2019-03-19T08:21:10.437Z,21.92
2019-03-19T08:26:13.995Z,21.81
2019-03-19T08:31:17.524Z,21.75
2019-03-19T08:36:21.180Z,21.69
2019-03-19T08:41:24.711Z,21.60
2019-03-19T08:46:28.729Z,21.58
2019-03-19T08:51:32.301Z,21.56
2019-03-19T08:56:35.847Z,21.56
2019-03-19T09:01:39.394Z,21.41
2019-03-19T09:06:42.944Z,21.37
2019-03-19T09:11:46.677Z,21.24
2019-03-19T09:16:50.261Z,21.20
2019-03-19T09:21:53.862Z,21.13
2019-03-19T09:26:57.437Z,21.06
2019-03-19T09:32:01.017Z,20.94
2019-03-19T09:37:05.047Z,20.83
2019-03-19T09:42:08.598Z,20.66
2019-03-19T09:47:12.264Z,20.66
2019-03-19T09:52:15.792Z,21.39
2019-03-19T09:57:19.359Z,21.79
2019-03-19T10:02:23.842Z,21.95
2019-03-19T10:07:27.582Z,22.14
2019-03-19T10:12:31.132Z,22.33
2019-03-19T10:17:34.754Z,22.10
2019-03-19T10:22:38.308Z,22.10
2019-03-19T10:27:41.992Z,22.06
2019-03-19T10:32:45.537Z,22.06
2019-03-19T10:37:49.105Z,22.00
2019-03-19T10:42:52.639Z,21.87
2019-03-19T10:47:56.223Z,21.77
2019-03-19T10:52:59.876Z,21.77
2019-03-19T10:58:10.849Z,21.72
2019-03-19T11:03:08.856Z,21.61
2019-03-19T11:08:12.484Z,21.54
2019-03-19T11:13:16.096Z,21.41
2019-03-19T11:18:19.717Z,21.39
2019-03-19T11:23:23.344Z,20.82
2019-03-19T11:28:26.889Z,20.57
2019-03-19T11:33:30.488Z,20.81
2019-03-19T11:38:34.039Z,20.70
2019-03-19T11:43:37.613Z,20.46
2019-03-19T11:48:41.187Z,20.37
2019-03-19T11:53:44.717Z,20.37
2019-03-19T11:58:48.263Z,20.34
2019-03-19T12:03:52.448Z,20.23
2019-03-19T12:08:55.979Z,20.25
2019-03-19T12:13:59.661Z,20.25
2019-03-19T12:19:03.187Z,20.91
2019-03-19T12:24:06.753Z,21.48
2019-03-19T12:29:10.279Z,21.96
2019-03-19T12:34:13.928Z,22.46
2019-03-19T12:39:17.477Z,23.57
2019-03-19T12:44:21.051Z,23.75
2019-03-19T12:49:24.704Z,23.64
2019-03-19T12:54:28.229Z,23.82
2019-03-19T12:59:31.821Z,23.87
2019-03-19T13:04:35.350Z,24.31
2019-03-19T13:09:38.927Z,24.42
2019-03-19T13:14:42.498Z,24.62
2019-03-19T13:19:46.105Z,24.58
2019-03-19T13:24:49.678Z,24.65
2019-03-19T13:29:53.231Z,24.49
2019-03-19T13:34:56.903Z,24.45
2019-03-19T13:40:00.496Z,24.30
2019-03-19T13:45:07.510Z,24.01
2019-03-19T13:50:12.990Z,24.38
2019-03-19T13:55:17.787Z,24.68
2019-03-19T14:00:21.757Z,24.83
2019-03-19T14:05:25.277Z,24.90
2019-03-19T14:10:28.805Z,24.58
2019-03-19T14:15:32.370Z,24.76
2019-03-19T14:20:35.941Z,24.66
2019-03-19T14:25:39.461Z,24.72
2019-03-19T14:30:43.104Z,24.60
2019-03-19T14:35:46.718Z,24.33
2019-03-19T14:40:50.289Z,24.01
2019-03-19T14:45:53.866Z,23.57
2019-03-19T14:50:57.413Z,23.28
2019-03-19T14:56:00.984Z,22.86
2019-03-19T15:01:04.979Z,22.46
2019-03-19T15:06:08.535Z,22.34
2019-03-19T15:11:12.081Z,22.33
2019-03-19T15:16:17.717Z,22.41
2019-03-19T15:21:21.807Z,22.67
2019-03-19T15:26:27.737Z,22.77
2019-03-19T15:31:31.385Z,22.82
2019-03-19T15:36:35.056Z,23.19
2019-03-19T15:41:38.667Z,23.26
2019-03-19T15:46:42.290Z,23.70
2019-03-19T15:51:45.850Z,23.94
2019-03-19T15:56:49.521Z,24.17
2019-03-19T16:01:53.058Z,24.50
2019-03-19T16:06:56.619Z,24.58
2019-03-19T16:12:00.187Z,24.58
2019-03-19T16:17:03.730Z,24.57
2019-03-19T16:22:07.303Z,24.51
2019-03-19T16:27:10.985Z,24.18
2019-03-19T16:32:14.579Z,23.91
2019-03-19T16:37:18.780Z,23.59
2019-03-19T16:42:22.441Z,23.32
2019-03-19T16:47:26.053Z,22.90
2019-03-19T16:52:29.823Z,22.73
2019-03-19T16:57:33.499Z,22.40
2019-03-19T17:02:37.202Z,22.07
2019-03-19T17:07:40.745Z,21.84
2019-03-19T17:12:44.341Z,21.72
2019-03-19T17:17:48.043Z,22.07
2019-03-19T17:22:51.591Z,22.43
2019-03-19T17:27:55.198Z,22.95
2019-03-19T17:32:58.819Z,23.70
2019-03-19T17:38:02.403Z,24.23
2019-03-19T17:43:06.009Z,24.70
2019-03-19T17:48:16.053Z,24.95
2019-03-19T17:53:14.865Z,24.71
2019-03-19T17:58:18.409Z,24.65
2019-03-19T18:03:21.993Z,24.02
2019-03-19T18:08:25.694Z,23.72
2019-03-19T18:13:29.273Z,23.49
2019-03-19T18:18:32.861Z,23.09
2019-03-19T18:23:36.435Z,22.64
2019-03-19T18:28:40.009Z,22.43
2019-03-19T18:33:43.580Z,22.12
2019-03-19T18:38:47.146Z,21.81
2019-03-19T18:43:50.683Z,21.53
2019-03-19T18:48:54.283Z,20.83
2019-03-19T18:53:57.853Z,20.83
2019-03-19T18:59:01.646Z,20.44
2019-03-19T19:04:05.184Z,20.38
2019-03-19T19:09:09.129Z,20.00
2019-03-19T19:14:12.699Z,19.64
2019-03-19T19:19:16.281Z,19.42
2019-03-19T19:24:19.857Z,19.34
2019-03-19T19:29:23.441Z,19.19
2019-03-19T19:34:27.021Z,19.08
2019-03-19T19:39:30.599Z,18.96
2019-03-19T19:44:34.170Z,18.87
2019-03-19T19:49:37.744Z,18.75
2019-03-19T19:54:41.594Z,18.71
2019-03-19T19:59:45.219Z,18.61
2019-03-19T20:04:48.850Z,18.54
2019-03-19T20:09:52.400Z,18.49
2019-03-19T20:14:55.998Z,18.37
2019-03-19T20:19:59.552Z,18.32
2019-03-19T20:25:03.127Z,18.27
2019-03-19T20:30:15.926Z,18.22
2019-03-19T20:35:19.499Z,18.17
2019-03-19T20:40:23.051Z,18.18
2019-03-19T20:45:28.225Z,18.08
2019-03-19T20:50:34.289Z,18.08
2019-03-19T20:55:37.856Z,18.04
2019-03-19T21:00:41.429Z,17.96
2019-03-19T21:05:44.971Z,17.94
2019-03-19T21:10:48.547Z,17.87
2019-03-19T21:15:52.126Z,17.86
2019-03-19T21:20:55.677Z,17.86
2019-03-19T21:25:59.227Z,18.10
2019-03-19T21:31:02.809Z,18.12
2019-03-19T21:36:06.379Z,19.01
2019-03-19T21:41:09.926Z,19.82
2019-03-19T21:46:13.520Z,21.00
2019-03-19T21:51:17.081Z,21.51
2019-03-19T21:56:20.650Z,21.80
2019-03-19T22:01:24.212Z,21.80
2019-03-19T22:06:28.663Z,21.77
2019-03-19T22:11:32.945Z,21.51
2019-03-19T22:16:36.508Z,21.34
2019-03-19T22:21:40.086Z,20.84
2019-03-19T22:26:43.671Z,20.24
2019-03-19T22:31:47.322Z,19.84
2019-03-19T22:36:51.045Z,19.63
2019-03-19T22:41:54.648Z,19.32
2019-03-19T22:46:58.198Z,19.21
2019-03-19T22:52:01.824Z,19.17
2019-03-19T22:57:05.444Z,18.79
2019-03-19T23:02:09.000Z,18.69
2019-03-19T23:07:12.703Z,18.60
2019-03-19T23:12:16.290Z,18.42
2019-03-19T23:17:19.950Z,18.27
2019-03-19T23:22:23.525Z,18.28
2019-03-19T23:27:27.168Z,18.18
2019-03-19T23:32:30.785Z,18.08
2019-03-19T23:37:34.307Z,18.07
2019-03-19T23:42:37.860Z,18.49
2019-03-19T23:47:41.434Z,18.85
2019-03-19T23:52:45.018Z,19.88
2019-03-19T23:57:48.834Z,20.89
